createdAt,value
2018-09-01T00:02:26.666Z,100794.00
2018-09-01T00:07:29.683Z,100796.00
2018-09-01T00:12:32.971Z,100797.00
2018-09-01T00:17:36.181Z,100802.00
2018-09-01T00:22:39.504Z,100802.00
2018-09-01T00:27:42.552Z,100811.00
2018-09-01T00:32:45.836Z,100819.00
2018-09-01T00:37:54.554Z,100820.00
2018-09-01T00:42:59.555Z,100815.00
2018-09-01T00:48:02.731Z,100809.00
2018-09-01T00:53:06.084Z,100817.00
2018-09-01T00:58:09.123Z,100814.00
2018-09-01T01:03:12.332Z,100813.00
2018-09-01T01:08:15.447Z,100810.00
2018-09-01T01:13:18.972Z,100818.00
2018-09-01T01:18:22.050Z,100805.00
2018-09-01T01:23:25.042Z,100804.00
2018-09-01T01:28:28.320Z,100796.00
2018-09-01T01:33:32.016Z,100799.00
2018-09-01T01:38:35.026Z,100798.00
2018-09-01T01:43:38.036Z,100785.00
2018-09-01T01:48:41.211Z,100797.00
2018-09-01T01:53:44.427Z,100800.00
2018-09-01T01:58:47.750Z,100799.00
2018-09-01T02:03:51.060Z,100805.00
2018-09-01T02:08:54.285Z,100806.00
2018-09-01T02:13:57.364Z,100809.00
2018-09-01T02:19:00.374Z,100814.00
2018-09-01T02:24:03.406Z,100813.00
2018-09-01T02:29:07.060Z,100811.00
2018-09-01T02:34:10.087Z,100822.00
2018-09-01T02:39:13.118Z,100823.00
2018-09-01T02:44:16.347Z,100851.00
2018-09-01T02:49:19.603Z,100848.00
2018-09-01T02:54:22.640Z,100850.00
2018-09-01T02:59:25.733Z,100859.00
2018-09-01T03:04:28.819Z,100867.00
2018-09-01T03:09:31.942Z,100885.00
2018-09-01T03:14:35.148Z,100887.00
2018-09-01T03:19:38.175Z,100881.00
2018-09-01T03:24:41.382Z,100883.00
2018-09-01T03:29:44.681Z,100876.00
2018-09-01T03:34:47.663Z,100877.00
2018-09-01T03:39:50.770Z,100878.00
2018-09-01T03:44:53.743Z,100885.00
2018-09-01T03:49:56.847Z,100884.00
2018-09-01T03:54:59.899Z,100894.00
2018-09-01T04:00:03.375Z,100885.00
2018-09-01T04:05:07.215Z,100887.00
2018-09-01T04:10:10.262Z,100878.00
2018-09-01T04:15:13.341Z,100876.00
2018-09-01T04:20:16.378Z,100891.00
2018-09-01T04:25:19.401Z,100898.00
2018-09-01T04:30:22.365Z,100900.00
2018-09-01T04:35:25.575Z,100900.00
2018-09-01T04:40:28.622Z,100901.00
2018-09-01T04:45:31.706Z,100910.00
2018-09-01T04:50:35.000Z,100908.00
2018-09-01T04:55:37.984Z,100903.00
2018-09-01T05:00:40.999Z,100906.00
2018-09-01T05:05:44.228Z,100907.00
2018-09-01T05:10:47.262Z,100904.00
2018-09-01T05:15:50.332Z,100905.00
2018-09-01T05:20:53.337Z,100911.00
2018-09-01T05:25:56.725Z,100929.00
2018-09-01T05:30:59.968Z,100926.00
2018-09-01T05:36:03.037Z,100935.00
2018-09-01T05:41:06.229Z,100925.00
2018-09-01T05:46:09.248Z,100927.00
2018-09-01T05:51:12.507Z,100925.00
2018-09-01T05:56:15.753Z,100939.00
2018-09-01T06:01:19.015Z,100952.00
2018-09-01T06:06:22.247Z,100951.00
2018-09-01T06:11:25.530Z,100956.00
2018-09-01T06:16:28.626Z,100970.00
2018-09-01T06:21:31.621Z,100969.00
2018-09-01T06:26:34.653Z,100989.00
2018-09-01T06:31:40.471Z,100995.00
2018-09-01T06:36:43.725Z,100985.00
2018-09-01T06:41:46.807Z,100995.00
2018-09-01T06:46:49.737Z,100989.00
2018-09-01T06:51:52.949Z,100999.00
2018-09-01T06:56:55.971Z,100998.00
2018-09-01T07:01:59.089Z,101001.00
2018-09-01T07:07:02.279Z,101016.00
2018-09-01T07:12:05.783Z,101013.00
2018-09-01T07:17:09.199Z,101029.00
2018-09-01T07:22:12.217Z,101045.00
2018-09-01T07:27:15.516Z,101058.00
2018-09-01T07:32:18.677Z,101059.00
2018-09-01T07:37:22.023Z,101058.00
2018-09-01T07:42:25.041Z,101070.00
2018-09-01T07:47:28.362Z,101075.00
2018-09-01T07:52:31.313Z,101087.00
2018-09-01T07:57:34.571Z,101085.00
2018-09-01T08:02:37.815Z,101092.00
2018-09-01T08:07:40.965Z,101087.00
2018-09-01T08:12:44.032Z,101086.00
2018-09-01T08:17:47.221Z,101091.00
2018-09-01T08:22:50.486Z,101088.00
2018-09-01T08:27:53.572Z,101093.00
2018-09-01T08:32:56.820Z,101101.00
2018-09-01T08:37:59.940Z,101108.00
2018-09-01T08:43:03.088Z,101102.00
2018-09-01T08:48:06.350Z,101099.00
2018-09-01T08:53:09.552Z,101115.00
2018-09-01T08:58:12.849Z,101103.00
2018-09-01T09:03:15.924Z,101113.00
2018-09-01T09:08:19.184Z,101131.00
2018-09-01T09:13:22.236Z,101125.00
2018-09-01T09:18:25.384Z,101131.00
2018-09-01T09:23:28.436Z,101130.00
2018-09-01T09:28:31.621Z,101148.00
2018-09-01T09:33:34.726Z,101131.00
2018-09-01T09:38:38.057Z,101126.00
2018-09-01T09:43:41.448Z,101137.00
2018-09-01T09:48:44.616Z,101125.00
2018-09-01T09:53:47.959Z,101134.00
2018-09-01T09:58:51.593Z,101121.00
2018-09-01T10:03:54.732Z,101124.00
2018-09-01T10:08:57.828Z,101127.00
2018-09-01T10:14:00.870Z,101123.00
2018-09-01T10:19:04.126Z,101108.00
2018-09-01T10:24:07.989Z,101112.00
2018-09-01T10:29:11.316Z,101107.00
2018-09-01T10:34:14.559Z,101104.00
2018-09-01T10:39:17.867Z,101100.00
2018-09-01T10:44:21.071Z,101094.00
2018-09-01T10:49:24.308Z,101102.00
2018-09-01T10:54:27.337Z,101082.00
2018-09-01T10:59:30.524Z,101094.00
2018-09-01T11:04:33.479Z,101088.00
2018-09-01T11:09:36.504Z,101079.00
2018-09-01T11:14:39.721Z,101080.00
2018-09-01T11:19:42.993Z,101087.00
2018-09-01T11:24:46.527Z,101077.00
2018-09-01T11:29:49.864Z,101079.00
2018-09-01T11:34:53.280Z,101077.00
2018-09-01T11:39:56.483Z,101073.00
2018-09-01T11:44:59.500Z,101067.00
2018-09-01T11:50:02.770Z,101060.00
2018-09-01T11:55:06.625Z,101066.00
2018-09-01T12:00:10.037Z,101056.00
2018-09-01T12:05:13.232Z,101049.00
2018-09-01T12:10:16.283Z,101055.00
2018-09-01T12:15:19.482Z,101049.00
2018-09-01T12:20:22.758Z,101047.00
2018-09-01T12:25:25.965Z,101061.00
2018-09-01T12:30:29.153Z,101050.00
2018-09-01T12:35:32.237Z,101055.00
2018-09-01T12:40:35.498Z,101047.00
2018-09-01T12:45:39.060Z,101052.00
2018-09-01T12:50:42.439Z,101055.00
2018-09-01T12:55:45.529Z,101047.00
2018-09-01T13:00:48.898Z,101040.00
2018-09-01T13:05:52.061Z,101045.00
2018-09-01T13:10:55.323Z,101038.00
2018-09-01T13:15:58.453Z,101039.00
2018-09-01T13:21:01.569Z,101043.00
2018-09-01T13:26:04.808Z,101034.00
2018-09-01T13:31:08.206Z,101034.00
2018-09-01T13:36:11.313Z,101042.00
2018-09-01T13:41:14.341Z,101040.00
2018-09-01T13:46:17.491Z,101031.00
2018-09-01T13:51:20.752Z,101039.00
2018-09-01T13:56:23.946Z,101033.00
2018-09-01T14:01:27.136Z,101034.00
2018-09-01T14:06:30.156Z,101039.00
2018-09-01T14:11:33.168Z,101038.00
2018-09-01T14:16:36.443Z,101032.00
2018-09-01T14:21:39.492Z,101018.00
2018-09-01T14:26:42.620Z,101018.00
2018-09-01T14:31:45.608Z,101009.00
2018-09-01T14:36:48.676Z,101019.00
2018-09-01T14:41:51.759Z,101016.00
2018-09-01T14:46:54.879Z,101025.00
2018-09-01T14:51:58.119Z,101004.00
2018-09-01T14:57:01.175Z,101015.00
2018-09-01T15:02:04.537Z,101008.00
2018-09-01T15:07:07.663Z,101014.00
2018-09-01T15:12:10.834Z,101013.00
2018-09-01T15:17:14.016Z,101014.00
2018-09-01T15:22:17.149Z,101015.00
2018-09-01T15:27:20.376Z,101019.00
2018-09-01T15:32:23.651Z,101014.00
2018-09-01T15:37:26.999Z,101011.00
2018-09-01T15:42:30.074Z,101012.00
2018-09-01T15:47:33.410Z,101007.00
2018-09-01T15:52:36.467Z,101005.00
2018-09-01T15:57:39.735Z,101011.00
2018-09-01T16:02:42.773Z,101014.00
2018-09-01T16:07:45.876Z,101021.00
2018-09-01T16:12:52.412Z,101020.00
2018-09-01T16:17:55.736Z,101005.00
2018-09-01T16:22:58.922Z,101015.00
2018-09-01T16:28:02.495Z,101021.00
2018-09-01T16:33:07.394Z,101010.00
2018-09-01T16:38:10.619Z,101009.00
2018-09-01T16:43:13.936Z,101021.00
2018-09-01T16:48:17.016Z,101012.00
2018-09-01T16:53:20.271Z,101008.00
2018-09-01T16:58:23.268Z,101012.00
2018-09-01T17:03:26.276Z,101014.00
2018-09-01T17:08:29.397Z,101018.00
2018-09-01T17:13:32.394Z,101026.00
2018-09-01T17:18:35.497Z,101016.00
2018-09-01T17:23:38.690Z,101033.00
2018-09-01T17:28:41.760Z,101039.00
2018-09-01T17:33:45.877Z,101030.00
2018-09-01T17:38:48.830Z,101032.00
2018-09-01T17:43:51.869Z,101017.00
2018-09-01T17:48:54.885Z,101023.00
2018-09-01T17:53:58.140Z,101014.00
2018-09-01T17:59:01.173Z,101016.00
2018-09-01T18:04:04.447Z,101014.00
2018-09-01T18:09:07.771Z,101018.00
2018-09-01T18:14:10.807Z,101024.00
2018-09-01T18:19:13.815Z,101015.00
2018-09-01T18:24:16.988Z,101005.00
2018-09-01T18:29:20.009Z,101013.00
2018-09-01T18:34:23.156Z,101018.00
2018-09-01T18:39:26.276Z,101009.00
2018-09-01T18:44:29.738Z,101007.00
2018-09-01T18:49:32.883Z,101003.00
2018-09-01T18:54:36.344Z,101000.00
2018-09-01T18:59:39.399Z,101000.00
2018-09-01T19:04:42.701Z,101010.00
2018-09-01T19:09:45.853Z,101000.00
2018-09-01T19:14:48.957Z,101003.00
2018-09-01T19:19:52.307Z,100995.00
2018-09-01T19:24:55.548Z,101014.00
2018-09-01T19:29:58.629Z,101008.00
2018-09-01T19:35:01.837Z,101010.00
2018-09-01T19:40:06.156Z,101011.00
2018-09-01T19:45:09.419Z,101015.00
2018-09-01T19:50:12.552Z,101007.00
2018-09-01T19:55:15.749Z,100995.00
2018-09-01T20:00:18.790Z,101015.00
2018-09-01T20:05:22.140Z,101008.00
2018-09-01T20:10:25.237Z,101010.00
2018-09-01T20:15:28.438Z,101009.00
2018-09-01T20:20:31.484Z,101013.00
2018-09-01T20:25:34.614Z,101011.00
2018-09-01T20:30:38.035Z,101010.00
2018-09-01T20:35:46.866Z,101006.00
2018-09-01T20:40:49.974Z,101006.00
2018-09-01T20:45:53.098Z,100989.00
2018-09-01T20:50:56.122Z,100991.00
2018-09-01T20:55:59.294Z,100991.00
2018-09-01T21:01:02.517Z,100985.00
2018-09-01T21:06:06.029Z,100993.00
2018-09-01T21:11:09.153Z,101002.00
2018-09-01T21:16:12.280Z,100995.00
2018-09-01T21:21:15.328Z,100993.00
2018-09-01T21:26:18.493Z,100998.00
2018-09-01T21:31:21.487Z,100998.00
2018-09-01T21:36:24.895Z,100999.00
2018-09-01T21:41:27.916Z,100996.00
2018-09-01T21:46:30.929Z,100994.00
2018-09-01T21:51:33.966Z,100994.00
2018-09-01T21:56:37.312Z,100992.00
2018-09-01T22:01:40.340Z,100985.00
2018-09-01T22:06:43.505Z,100987.00
2018-09-01T22:11:46.503Z,101000.00
2018-09-01T22:16:49.816Z,100986.00
2018-09-01T22:21:52.851Z,100993.00
2018-09-01T22:26:56.043Z,100993.00
2018-09-01T22:31:59.058Z,100992.00
2018-09-01T22:37:02.377Z,100994.00
2018-09-01T22:42:05.979Z,100990.00
2018-09-01T22:47:13.536Z,100985.00
2018-09-01T22:52:16.518Z,100992.00
2018-09-01T22:57:20.012Z,100987.00
2018-09-01T23:02:23.091Z,100988.00
2018-09-01T23:07:26.207Z,100986.00
2018-09-01T23:12:29.176Z,100992.00
2018-09-01T23:17:32.200Z,100980.00
2018-09-01T23:22:35.191Z,100984.00
2018-09-01T23:27:38.227Z,100981.00
2018-09-01T23:32:41.207Z,100978.00
2018-09-01T23:37:44.408Z,100985.00
2018-09-01T23:42:47.552Z,100979.00
2018-09-01T23:47:50.598Z,100984.00
2018-09-01T23:52:53.771Z,100988.00
2018-09-01T23:57:56.765Z,100981.00
